Tiempo atmosférico en la estación meteorológica de Asturias Aeropuerto, Asturias (127 m.)

Fecha
DESCASC
Temp. máxima en grados centígrados (hora)
DESCASC
Temp. mínima en grados centígrados (hora)
DESCASC
Temp. media en grados centígrados
DESCASC
Racha de viento máxima en m/sg (hora)
DESCASC
Velocidad máxima media en intervalos de 10 minutos(hora)
DESCASC
Precipitaciones diarias en mm
DESCASC
Precipitaciones de 00:00 a 06:00 en mm
DESCASC
Precipitaciones de 06:00 a 12:00 en mm
DESCASC
Precipitaciones de 12:00 a 18:00 en mm
DESCASC
Precipitaciones de 18:00 a 24:00 en mm
DESCASC
17-09-2017 19.4 (15:10) 12.3 (08:00) 15.8 11.39 (11:40) 6.67 (18:30) 1.1 0 0 0 1.1
16-09-2017 18.8 (14:30) 9.7 (06:50) 14.2 11.39 (14:50) 7.78 (14:50) 8.7 5.8 2.8 0.1 0
15-09-2017 18.9 (16:20) 10.8 (05:40) 14.8 8.89 (21:20) 4.44 (17:30) 22.4 8.8 7.4 3 3.2
14-09-2017 20.1 (15:40) 12.4 (00:00) 16.3 13.89 (04:20) 6.94 (04:20) 5.8 2.4 3.4 0 0
13-09-2017 24.2 (16:00) 14.3 (00:00) 19.3 10.83 (18:20) 6.11 (18:20) 0 0 0 0 0
12-09-2017 20.9 (15:30) 15.1 (00:00) 18 10.28 (00:10) 6.11 (00:10) 1.4 1.4 0 0 0
11-09-2017 21.7 (00:00) 16 (00:00) 18.9 16.39 (04:30) 10.28 (20:40) 8.5 3.9 3.4 0 1.2
10-09-2017 21.9 (23:10) 12.7 (00:00) 17.3 15.28 (23:50) 7.78 (23:10) 0.5 0.5 0 0 0
09-09-2017 19.6 (13:00) 13.7 (00:00) 16.7 21.11 (14:10) 10.83 (14:20) 11.3 3.7 0.2 5 2.4
08-09-2017 20.9 (17:50) 13.2 (00:00) 17 12.5 (21:40) 8.33 (21:40) 0 0 0 0 0
07-09-2017 20.6 (17:10) 12.8 (00:00) 16.7 6.67 (10:40) 3.06 (03:40) 0 0 0 0 0
06-09-2017 21.9 (15:40) 14.9 (00:00) 18.4 6.67 (17:50) 3.89 (18:40) 2.4 2.4 0 0 0
05-09-2017 22.5 (15:30) 17.3 (00:00) 19.9 10.28 (07:40) 3.61 (13:00) 2.2 0 0 0 2.2
04-09-2017 21.8 (15:30) 17 (00:00) 19.4 8.89 (04:00) 5.28 (08:40) 0.8 0.4 0.4 0 0
03-09-2017 22.3 (12:20) 16.1 (00:00) 19.2 9.72 (23:40) 4.44 (23:50) 0.7 0 0 0.7 0
02-09-2017 21.5 (15:10) 11.4 (00:00) 16.4 9.72 (07:20) 4.72 (09:00) 0 0 0 0 0
01-09-2017 21.3 (17:30) 12.3 (00:00) 16.8 8.33 (10:00) 4.72 (13:00) 0 0 0 0 0
31-08-2017 20 (12:50) 14.1 (00:00) 17.1 5 (01:30) 3.33 (07:50) 0.4 0 0.4 0 0
30-08-2017 19.2 (00:00) 14.8 (00:00) 17 8.89 (11:40) 3.33 (11:30) 21.7 0 11 7.6 3.1
29-08-2017 23.6 (11:50) 18 (00:00) 20.8 6.67 (09:50) 4.17 (04:10) 0.8 0 0.8 0 0
28-08-2017 23 (12:20) 15.3 (00:00) 19.2 9.17 (00:30) 5.83 (01:10) 0 0 0 0 0
27-08-2017 28.9 (17:10) 16.2 (00:00) 22.6 16.11 (20:20) 8.33 (20:20) 2 0.5 0.1 0 1.4
26-08-2017 -- (--) -- (--) -- -- (--) -- (--) -- 0 -- 0.4 0
25-08-2017 22 (16:20) 16.7 (00:00) 19.4 5 (04:50) 4.17 (05:20) 0 0 0 0 0
24-08-2017 19.5 (17:50) 17.4 (00:00) 18.4 6.11 (09:50) 4.17 (22:10) 2.3 0 0.9 1.4 0
23-08-2017 20.8 (16:10) 14.6 (00:00) 17.7 9.17 (11:00) 3.33 (10:50) -- 0 -- -- 0
22-08-2017 22.9 (15:30) 16.6 (00:00) 19.8 8.33 (03:30) 6.11 (15:20) 0 0 0 0 0

Gráficas

Temp. máximas Temp. mínimas Temp. medias Precipitaciones Rachas de viento máximas Velocidades máximas media en intervalos de 10 minutos

Datos horarios

Fecha y hora oficial Temperatura (ºC) Velocidad del viento (km/h) Dirección del viento Racha (km/h) Dirección de racha Precipitación (mm) Presión (hPa) Tendencia (hPa) Humedad (%)
2017-09-20 23:00:00 14.4 6 Sudoeste 11 Sudoeste 0 1002.6 0.2 92
2017-09-20 22:00:00 14.8 0 Calma 4 Sudoeste 0 1002.6 0.1 88
2017-09-20 21:00:00 15.9 0 Calma -- -- 0 1002.5 -0.1 84
2017-09-20 20:00:00 18.3 0 Calma 5 Nordeste 0 1002.4 -0.9 76
2017-09-20 19:00:00 19.9 3 Nordeste 11 Este 0 1002.5 -1.3 71
2017-09-20 18:00:00 20.2 3 Nordeste 13 Norte 0 1002.6 -1.8 70
2017-09-20 17:00:00 19.9 6 Norte 15 Norte 0 1003.3 -1.5 70
2017-09-20 16:00:00 19.8 6 Norte 15 Norte 0 1003.8 -1.2 72
2017-09-20 15:00:00 19.6 6 Norte 15 Norte 0 1004.4 -0.9 73
2017-09-20 14:00:00 19.4 5 Norte 15 Noroeste 0 1004.8 -0.7 73
2017-09-20 13:00:00 19.3 5 Norte 13 Nordeste 0 1005 -0.6 72
2017-09-20 12:00:00 19.4 4 Oeste 17 Sudoeste 0 1005.3 -0.5 72
2017-09-20 11:00:00 17.7 4 Sudoeste 24 Sudoeste 0 1005.5 -0.5 79
2017-09-20 10:00:00 15.5 8 Sur 18 Sur 0 1005.6 -0.5 89
2017-09-20 09:00:00 12.7 4 Sur 8 Sur 0 1005.8 -0.7 97
2017-09-20 08:00:00 12 4 Sudoeste 24 Oeste 0 1006 -0.8 96
2017-09-20 07:00:00 11.6 0 Calma 5 Sudoeste 0 1006.1 -1.3 95
2017-09-20 06:00:00 11.4 3 Sur 11 Sudeste 0 1006.5 -1.3 93
2017-09-20 05:00:00 11.6 7 Sudeste 13 Sudoeste 0 1006.8 -1.2 91
2017-09-20 04:00:00 13.2 5 Sudoeste 15 Sudoeste 0 1007.4 -1 91
2017-09-20 03:00:00 13.5 4 Sudoeste 15 Sudoeste 0 1007.8 -1.1 89
2017-09-20 02:00:00 13.5 3 Sudoeste 17 Sur 0 1008 -1.1 89
2017-09-20 01:00:00 13.3 9 Sur 15 Sur 0 1008.4 -0.7 92
2017-09-20 00:00:00 12 7 Sur 8 Sudeste 0 1008.9 0.1 91
2017-09-19 23:00:00 12.4 6 Sudeste 13 Sudeste 0 1009.1 0.4 91
2017-09-19 22:00:00 13.1 11 Sudeste 17 Este 0 1009.1 0.4 88
2017-09-19 21:00:00 15.5 12 Este 17 Sudeste 0 1008.8 0.1 80
2017-09-19 20:00:00 17.1 6 Este 15 Este 0 1008.7 -0.3 75
2017-09-19 19:00:00 18.7 6 Este 21 Este 0 1008.7 -0.6 68
2017-09-19 18:00:00 19.5 8 Este 22 Este 0 1008.7 -1 67
2017-09-19 17:00:00 19.8 10 Este 24 Este 0 1009 -0.9 69
2017-09-19 16:00:00 20 11 Este 26 Este 0 1009.3 -0.8 70
2017-09-19 15:00:00 19.8 7 Este 24 Este 0 1009.7 -0.6 71
2017-09-19 14:00:00 19.6 5 Este 17 Nordeste 0 1009.9 -0.4 71
2017-09-19 13:00:00 19.3 5 Este 11 Este 0 1010.1 0.1 75
2017-09-19 12:00:00 18.1 4 Norte 11 Nordeste 0 1010.3 0.6 81
2017-09-19 11:00:00 16.4 9 Sur 17 Sudoeste 0 1010.3 0.9 90
2017-09-19 10:00:00 14.3 7 Sudoeste 17 Sudoeste 0 1010 0.7 98
2017-09-19 09:00:00 13 9 Sudoeste 15 Sur 0 1009.7 0.2 98
2017-09-19 08:00:00 12.8 2 Sur 8 Sudeste 0 1009.4 -0.1 96
2017-09-19 07:00:00 13.9 0 Calma 8 Sur 0 1009.3 -0.3 95
2017-09-19 06:00:00 14.7 4 Sur 8 Sur 0 1009.5 -0.4 94
2017-09-19 05:00:00 14.8 4 Sur 9 Sudoeste 0 1009.5 -0.2 95
2017-09-19 04:00:00 14.8 4 Sudoeste 8 Sur 0 1009.6 0 96
2017-09-19 03:00:00 14.7 2 Sudoeste 8 Sur 0 1009.9 0.2 96
2017-09-19 02:00:00 14.7 0 Calma 5 Sudoeste 0 1009.7 0.1 96
2017-09-19 01:00:00 14.6 3 Sur 4 Sur 0 1009.6 0.3 95
2017-09-19 00:00:00 14.9 3 Sur 11 Sur 0 1009.7 1 95
2017-09-18 23:00:00 15 5 Sudeste 11 Sudeste 0 1009.6 1.4 96
2017-09-18 22:00:00 15 6 Sudeste 11 Sudeste 3.9 1009.3 1.7 95
2017-09-18 21:00:00 15.6 5 Sudeste 11 Este 0 1008.7 2 92
2017-09-18 20:00:00 16.3 4 Este 11 Este 0 1008.2 2.2 87
2017-09-18 19:00:00 16.4 3 Nordeste 15 Nordeste 0 1007.6 2.2 88
2017-09-18 18:00:00 16.9 3 Nordeste 15 Norte 0 1006.7 1.9 90
2017-09-18 17:00:00 17.4 0 Calma 22 Noroeste 0.4 1006 1.6 91
2017-09-18 16:00:00 18.2 11 Norte 37 Oeste 0 1005.4 1.3 84
2017-09-18 15:00:00 19.4 27 Oeste 42 Oeste 0 1004.8 1.1 79
2017-09-18 14:00:00 20.1 18 Oeste 33 Oeste 0 1004.4 1.4 71
2017-09-18 13:00:00 18.3 12 Sudoeste 28 Sur 0 1004.1 1.8 79
2017-09-18 12:00:00 18.4 19 Oeste 33 Oeste 0 1003.7 1.5 74
2017-09-18 11:00:00 18.1 11 Oeste 24 Sudoeste 0 1003 1.4 72
2017-09-18 10:00:00 15.4 12 Sudoeste 32 Sudoeste 0 1002.3 1 80
2017-09-18 09:00:00 14.3 10 Sudoeste 24 Sudoeste 0 1002.2 1.1 84
2017-09-18 08:00:00 13.4 13 Sudoeste 24 Sudoeste 0 1001.6 0.1 91
2017-09-18 07:00:00 12.9 14 Sudoeste 24 Sur 0 1001.3 -0.8 94
2017-09-18 06:00:00 13.2 14 Sudoeste 21 Sudoeste 0 1001.1 -1 95
2017-09-18 05:00:00 13.4 10 Sur 17 Sudoeste 2.5 1001.5 -0.3 95
2017-09-18 04:00:00 13.6 6 Sudoeste 11 Sudoeste 0.1 1002.1 -0.7 93
2017-09-18 03:00:00 13.5 4 Sudoeste 13 Sudoeste 0 1002.1 -1.2 93
2017-09-18 02:00:00 13.6 9 Sur 18 Sudoeste 0.3 1001.8 -2.1 93
2017-09-18 01:00:00 13.8 8 Sudoeste 15 Sudoeste 0.1 1002.8 -0.9 93
2017-09-18 00:00:00 14.2 5 Sudoeste 11 Sur 0.3 1003.3 0 92
2017-09-17 23:00:00 14.8 5 Sur 8 Sudoeste 0.8 1003.9 0.7 89
2017-09-17 22:00:00 16.1 3 Sudoeste 24 Oeste 0 1003.7 0.2 82
2017-09-17 21:00:00 16.4 10 Noroeste 22 Noroeste 0 1003.3 0.2 74
2017-09-17 20:00:00 16.6 13 Noroeste 30 Noroeste 0 1003.2 0 71
2017-09-17 19:00:00 18.4 18 Noroeste 35 Oeste 0 1003.5 0.2 65
2017-09-17 18:00:00 17.5 22 Oeste 33 Oeste 0 1003.1 -0.5 70
2017-09-17 17:00:00 18 14 Noroeste 35 Noroeste 0 1003.2 -0.7 75
2017-09-17 16:00:00 18.2 22 Oeste 33 Oeste 0 1003.3 -0.6 65
2017-09-17 15:00:00 18.9 22 Oeste 37 Noroeste 0 1003.6 -0.6 58
2017-09-17 14:00:00 17.8 18 Oeste 35 Oeste 0 1003.9 -0.2 59
2017-09-17 13:00:00 18 14 Oeste 30 Sudoeste 0 1003.9 0.3 60
2017-09-17 12:00:00 15.9 19 Oeste 41 Oeste 0 1004.2 1 66
2017-09-17 11:00:00 15.4 13 Sudoeste 24 Sudoeste 0 1004.1 1.2 66
2017-09-17 10:00:00 13.8 16 Sudoeste 30 Sudoeste 0 1003.6 1.1 70
2017-09-17 09:00:00 13 15 Sudoeste 26 Sudoeste 0 1003.2 0.9 69
2017-09-17 08:00:00 12.3 0 Calma 32 Sur 0 1002.9 0.5 72
2017-09-17 07:00:00 12.7 15 Sudoeste 28 Sur 0 1002.5 -0.3 71
2017-09-17 06:00:00 12.7 19 Sudoeste 30 Sudoeste 0 1002.3 -0.7 72
2017-09-17 05:00:00 12.5 18 Sudoeste 28 Sudoeste 0 1002.4 -0.9 75
2017-09-17 04:00:00 13 6 Sudoeste 21 Sudoeste 0 1002.8 -0.6 75
2017-09-17 03:00:00 13 11 Sudoeste 18 Sur 0 1003 -0.9 76
2017-09-17 02:00:00 12.7 8 Sudoeste 22 Sudoeste 0 1003.3 -0.4 78
2017-09-17 01:00:00 12.4 13 Sudoeste 24 Sudoeste 0 1003.4 -0.2 81
2017-09-17 00:00:00 12.4 10 Sudoeste 21 Sudoeste 0 1003.9 0.5 85
2017-09-16 23:00:00 13.2 5 Sudoeste 21 Oeste 0 1003.7 0.4 76
2017-09-16 22:00:00 13.7 7 Sudoeste 28 Oeste 0 1003.6 0.4 69
2017-09-16 21:00:00 13.7 9 Sudoeste 21 Oeste 0 1003.4 0.6 71
2017-09-16 20:00:00 15.2 15 Oeste 30 Noroeste 0 1003.3 0.3 67
2017-09-16 19:00:00 14.7 18 Oeste 41 Oeste 0 1003.2 0.2 78
2017-09-16 18:00:00 17.2 21 Oeste 33 Noroeste 0 1002.8 -0.2 62
2017-09-16 17:00:00 17.6 22 Oeste 35 Oeste 0 1003 -0.3 63
2017-09-16 16:00:00 16.4 23 Oeste 41 Oeste 0 1003 -0.7 66
2017-09-16 15:00:00 15.9 23 Oeste 41 Noroeste 0 1003 -1.1 69
2017-09-16 14:00:00 17.5 18 Oeste 28 Noroeste 0 1003.3 -0.4 66
2017-09-16 13:00:00 15.2 12 Oeste 24 Oeste 0.1 1003.7 0.4 78
2017-09-16 12:00:00 12.5 3 Sudoeste 18 Sudoeste 2.1 1004.1 1.3 88
2017-09-16 11:00:00 13.1 15 Sudoeste 22 Sudoeste 0.2 1003.7 1.7 86
2017-09-16 10:00:00 11.6 14 Sudoeste 24 Sudoeste 0.1 1003.3 1.3 87
2017-09-16 09:00:00 10 4 Sudoeste 24 Sudoeste 0.4 1002.8 0.4 91
2017-09-16 08:00:00 9.8 16 Sudoeste 37 Oeste 0 1002 -0.8 91
2017-09-16 07:00:00 9.7 12 Sudoeste 26 Sudoeste 0 1002 -0.6 91
2017-09-16 06:00:00 10.1 13 Sudoeste 24 Sudoeste 1.6 1002.4 -1.1 92
2017-09-16 05:00:00 10.5 9 Sudoeste 24 Sur 1.7 1002.8 -1 91
2017-09-16 04:00:00 10.9 13 Sudoeste 21 Sudoeste 1.8 1002.6 -1.7 90
2017-09-16 03:00:00 11 6 Oeste 26 Sudoeste 0.7 1003.5 -1 91
2017-09-16 02:00:00 11.1 13 Sudoeste 26 Sudoeste 0 1003.8 -0.8 90
2017-09-16 01:00:00 11.1 16 Sudoeste 30 Sudoeste 0 1004.3 -0.4 92
2017-09-16 00:00:00 11.3 12 Sudoeste 22 Sudoeste 1.9 1004.5 0.3 89
2017-09-15 23:00:00 12.2 13 Sur 22 Sur 1.3 1004.6 0.4 89
2017-09-15 22:00:00 12.5 6 Sudoeste 32 Sudoeste 0 1004.7 0.6 81
2017-09-15 21:00:00 14.3 5 Noroeste 18 Noroeste 0 1004.2 0.1 72
2017-09-15 20:00:00 15.6 6 Noroeste 21 Oeste 0 1004.2 -0.2 69
2017-09-15 19:00:00 16.7 8 Oeste 22 Oeste 0 1004.1 -0.5 64
2017-09-15 18:00:00 17.9 14 Noroeste 24 Noroeste 0 1004.1 -1 64
2017-09-15 17:00:00 17 4 Norte 18 Noroeste 0 1004.4 -0.9 63
2017-09-15 16:00:00 18.1 9 Oeste 22 Sudoeste 0 1004.6 -1 64
2017-09-15 15:00:00 16.1 8 Sudoeste 21 Noroeste 2.1 1005.1 -0.9 80
2017-09-15 14:00:00 15.9 12 Noroeste 28 Oeste 0 1005.3 -0.2 76
2017-09-15 13:00:00 14.5 5 Sudoeste 18 Noroeste 0.9 1005.6 0.6 81
2017-09-15 12:00:00 13.9 2 Oeste 15 Sudoeste 1.1 1006 0.8 88
2017-09-15 11:00:00 13.1 6 Sudoeste 17 Sudoeste 4.8 1005.5 0.4 91
2017-09-15 10:00:00 12.2 5 Sudoeste 18 Sudoeste 0 1005 -0.1 91
2017-09-15 09:00:00 11.6 4 Sudeste 22 Sudoeste 1.3 1005.2 -0.3 93
2017-09-15 08:00:00 10.9 8 Sudoeste 17 Sudoeste 0 1005.1 -0.6 93
2017-09-15 07:00:00 11.1 8 Sudoeste 22 Sudoeste 0.2 1005.1 -0.8 94
2017-09-15 06:00:00 10.9 8 Sudoeste 22 Sudoeste 0 1005.5 -1.2 94
2017-09-15 05:00:00 11.2 11 Sudoeste 21 Sudoeste 3.3 1005.7 -1 92
2017-09-15 04:00:00 11.4 8 Sudoeste 18 Sudoeste 0.6 1005.9 -1.3 90
2017-09-15 03:00:00 11.2 8 Sudoeste 22 Sudoeste 4.9 1006.7 -1 92
2017-09-15 02:00:00 11.9 9 Sudoeste 18 Sudoeste 0 1006.7 -1.4 85
2017-09-15 01:00:00 12.7 9 Sudoeste 18 Sudoeste 0 1007.2 -1.1 79
2017-09-15 00:00:00 12.4 5 Sudoeste 13 Sudoeste 0 1007.7 -0.6 79
2017-09-14 23:00:00 14 4 Sudoeste 15 Oeste 0 1008.1 -0.1 68
2017-09-14 22:00:00 15.3 6 Noroeste 17 Oeste 0 1008.3 0.3 62
2017-09-14 21:00:00 15.9 3 Noroeste 18 Noroeste 0 1008.3 -0.1 62
2017-09-14 20:00:00 16.6 5 Noroeste 18 Oeste 0 1008.2 -0.8 63
2017-09-14 19:00:00 18.7 5 Noroeste 21 Oeste 0 1008 -1.5 56
2017-09-14 18:00:00 19.1 7 Noroeste 18 Noroeste 0 1008.4 -1.4 54
2017-09-14 17:00:00 19.6 7 Norte 18 Noroeste 0 1009 -1.2 55
2017-09-14 16:00:00 19.5 4 Norte 18 Noroeste 0 1009.5 -1 59
2017-09-14 15:00:00 19.5 8 Norte 18 Noroeste 0 1009.8 -0.7 52
2017-09-14 14:00:00 19.5 8 Norte 18 Noroeste 0 1010.2 -0.1 53
2017-09-14 13:00:00 19.1 5 Noroeste 17 Oeste 0 1010.5 0.8 60
2017-09-14 12:00:00 18.1 6 Noroeste 17 Oeste 0 1010.5 1.4 58
2017-09-14 11:00:00 16.3 6 Sudoeste 15 Sudoeste 0 1010.3 1.7 79
2017-09-14 10:00:00 15.6 7 Oeste 21 Oeste 0 1009.7 1.9 87
2017-09-14 09:00:00 14.2 10 Oeste 24 Oeste 0.1 1009.1 2.1 95
2017-09-14 08:00:00 14 14 Oeste 35 Noroeste 1.3 1008.6 2.8 98
2017-09-14 07:00:00 14.3 17 Noroeste 37 Noroeste 2 1007.8 3.9 98
2017-09-14 06:00:00 14.8 23 Noroeste 46 Noroeste 2.1 1007 3.3 98
2017-09-14 05:00:00 15.9 19 Noroeste 50 Noroeste 0.3 1005.8 1.7 94
2017-09-14 04:00:00 19.1 13 Oeste 21 Sudoeste 0 1003.9 -0.5 67
2017-09-14 03:00:00 17.6 13 Sudoeste 22 Sudoeste 0 1003.7 -1.2 81
2017-09-14 02:00:00 17.3 6 Sudoeste 26 Oeste 0 1004.1 -1 88
2017-09-14 01:00:00 18.8 15 Oeste 35 Oeste 0 1004.4 -0.6 80
2017-09-14 00:00:00 18.9 15 Oeste 30 Oeste 0 1004.9 0.1 83
2017-09-13 23:00:00 19.1 13 Oeste 32 Oeste 0 1005.1 0.2 82
2017-09-13 22:00:00 19.2 18 Oeste 35 Oeste 0 1005 0 81
2017-09-13 21:00:00 19.2 17 Oeste 35 Oeste 0 1004.8 -0.1 86
2017-09-13 20:00:00 19.7 18 Oeste 28 Oeste 0 1004.9 -0.1 87
2017-09-13 19:00:00 19.4 17 Oeste 39 Oeste 0 1005 0 90
2017-09-13 18:00:00 20.7 19 Oeste 33 Oeste 0 1004.9 -0.5 86
2017-09-13 17:00:00 22.8 12 Noroeste 26 Noroeste 0 1005 -0.8 77
2017-09-13 16:00:00 24 10 Noroeste 24 Oeste 0 1005 -1.1 69
2017-09-13 15:00:00 23.9 15 Oeste 28 Oeste 0 1005.4 -0.7 68
2017-09-13 14:00:00 23.6 17 Oeste 26 Noroeste 0 1005.8 -0.4 69
2017-09-13 13:00:00 23 16 Oeste 28 Oeste 0 1006.1 0.2 68
2017-09-13 12:00:00 22.5 12 Oeste 22 Oeste 0 1006.1 0.5 65
2017-09-13 11:00:00 20.9 5 Sudoeste 21 Sudoeste 0 1006.2 0.6 70
2017-09-13 10:00:00 18.3 5 Sudoeste 24 Sudoeste 0 1005.9 0.5 81
2017-09-13 09:00:00 15.5 4 Sudoeste 15 Sudoeste 0 1005.6 0.4 92
2017-09-13 08:00:00 14.6 4 Sudoeste 22 Sudoeste 0 1005.6 0.3 94
2017-09-13 07:00:00 14.4 4 Sudoeste 11 Sudoeste 0 1005.4 -0.1 94
2017-09-13 06:00:00 15 6 Sudoeste 13 Sudoeste 0 1005.2 -0.6 91
2017-09-13 05:00:00 15.9 6 Oeste 11 Sudoeste 0 1005.3 -0.8 92
2017-09-13 04:00:00 15.9 5 Sudoeste 15 Sudoeste 0 1005.5 -0.6 94
2017-09-13 03:00:00 16 4 Sudoeste 11 Sudoeste 0 1005.8 -0.2 94
2017-09-13 02:00:00 16.8 5 Sudoeste 15 Oeste 0 1006.1 0 93
2017-09-13 01:00:00 17.2 5 Sudoeste 17 Oeste 0 1006.1 0.4 91
2017-09-13 00:00:00 18 8 Sudoeste 18 Oeste 0 1006 0.7 87
2017-09-12 23:00:00 18.7 12 Oeste 30 Oeste 0 1006.1 1.4 83
2017-09-12 22:00:00 18.5 15 Oeste 24 Oeste 0 1005.7 0.9 87
2017-09-12 21:00:00 18.2 8 Oeste 15 Noroeste 0 1005.3 0.4 90
2017-09-12 20:00:00 19.4 7 Oeste 17 Oeste 0 1004.7 -0.2 85
2017-09-12 19:00:00 19.2 13 Noroeste 22 Noroeste 0 1004.8 0.2 86
2017-09-12 18:00:00 19.3 8 Noroeste 22 Noroeste 0 1004.9 0.5 85
2017-09-12 17:00:00 19.7 9 Noroeste 22 Noroeste 0 1004.9 0.4 83
2017-09-12 16:00:00 20.5 10 Noroeste 21 Norte -- 1004.6 0.3 78
2017-09-12 15:00:00 20.1 8 Norte 17 Norte 0 1004.4 0.3 78
2017-09-12 14:00:00 19 6 Norte 17 Norte 0 1004.5 0.8 80
2017-09-12 13:00:00 18.8 2 Norte 8 Norte 0 1004.3 0.9 81
2017-09-12 12:00:00 18.8 0 Calma 9 Oeste 0 1004.1 0.9 79
2017-09-12 11:00:00 18 0 Calma 5 Oeste 0 1003.7 0.8 81
2017-09-12 10:00:00 16.3 0 Calma 11 Oeste 0 1003.4 1.2 86
2017-09-12 09:00:00 15.4 6 Oeste 18 Oeste 0 1003.2 1.2 92
2017-09-12 08:00:00 15.7 7 Oeste 30 Noroeste 0 1002.9 0.6 86
2017-09-12 07:00:00 15.7 3 Noroeste 21 Sudoeste 0 1002.2 -0.3 83
2017-09-12 06:00:00 16.3 8 Oeste 26 Oeste 0 1002 -0.6 77
2017-09-12 05:00:00 16.5 17 Oeste 28 Oeste 0 1002.3 -0.5 77
2017-09-12 04:00:00 15.7 5 Sudoeste 18 Oeste 0 1002.5 -0.4 81
2017-09-12 03:00:00 15.5 7 Sudoeste 15 Oeste 0 1002.6 -0.4 83
2017-09-12 02:00:00 15.8 13 Oeste 26 Oeste 0 1002.8 0 84
2017-09-12 01:00:00 15.4 15 Oeste 37 Oeste 1.4 1002.9 0.4 89
2017-09-12 00:00:00 16.6 15 Oeste 45 Noroeste 1.2 1003 1 86
2017-09-11 23:00:00 17 26 Noroeste 45 Oeste 0 1002.8 1.3 84
2017-09-11 22:00:00 17.1 20 Oeste 48 Noroeste 0 1002.5 1.3 83
2017-09-11 21:00:00 17.3 26 Noroeste 58 Noroeste 0 1002 1.3 84
2017-09-11 20:00:00 18 33 Oeste 48 Oeste 0 1001.5 0.8 74
2017-09-11 19:00:00 18.1 22 Noroeste 46 Noroeste 0 1001.2 0.3 76
2017-09-11 18:00:00 19.9 21 Noroeste 39 Noroeste 0 1000.7 -0.8 69
2017-09-11 17:00:00 19.8 24 Noroeste 48 Noroeste 0 1000.7 -0.7 69
2017-09-11 16:00:00 20.5 31 Oeste 45 Noroeste 0 1000.9 -0.5 67
2017-09-11 15:00:00 20.7 20 Noroeste 42 Oeste 0 1001.5 0.3 69
2017-09-11 14:00:00 20.3 28 Oeste 48 Oeste 0 1001.4 0.6 66
2017-09-11 13:00:00 19.4 8 Norte 50 Oeste 0 1001.4 1 69
2017-09-11 12:00:00 18.8 27 Oeste 55 Oeste 0 1001.2 0.8 74
2017-09-11 11:00:00 18.8 27 Oeste 45 Oeste 0 1000.8 1.1 81
2017-09-11 10:00:00 16.8 28 Oeste 42 Oeste 0.6 1000.4 1.3 89
2017-09-11 09:00:00 16.6 28 Oeste 42 Oeste 0.7 1000.4 1.1 93
2017-09-11 08:00:00 16.6 21 Oeste 41 Oeste 0 999.7 0.4 90
2017-09-11 07:00:00 16.1 25 Oeste 58 Oeste 2.1 999.1 0.2 98
2017-09-11 06:00:00 16.4 25 Oeste 52 Oeste 2.7 999.3 0.9 99
2017-09-11 05:00:00 16.6 31 Oeste 59 Oeste 0.9 999.3 0.6 98
2017-09-11 04:00:00 17.6 25 Noroeste 46 Noroeste 0.3 998.9 0 96
2017-09-11 03:00:00 21.2 25 Oeste 46 Oeste 0 998.4 -0.5 70
2017-09-11 02:00:00 21.4 30 Oeste 52 Oeste 0 998.7 -0.5 69
2017-09-11 01:00:00 21.6 29 Oeste 46 Oeste 0 998.9 -0.4 68
2017-09-11 00:00:00 21.7 22 Oeste 55 Oeste 0 998.9 -0.3 67
2017-09-10 23:00:00 21.8 27 Oeste 52 Oeste 0 999.2 0 66
2017-09-10 22:00:00 21.5 27 Oeste 41 Oeste 0 999.3 0.1 66
2017-09-10 21:00:00 21.3 19 Oeste 33 Oeste 0 999.2 -0.5 67
2017-09-10 20:00:00 21.1 11 Oeste 28 Oeste 0 999.2 -0.9 64
2017-09-10 19:00:00 21.3 13 Oeste 26 Oeste 0 999.2 -1.3 63
2017-09-10 18:00:00 20.9 4 Oeste 32 Oeste 0 999.7 -1.6 63
2017-09-10 17:00:00 19.6 0 Calma 21 Oeste 0 1000.1 -1.7 65
2017-09-10 16:00:00 20.7 14 Noroeste 26 Noroeste 0 1000.5 -1.4 60
2017-09-10 15:00:00 19.9 21 Oeste 33 Oeste 0 1001.3 -0.8 62
2017-09-10 14:00:00 20.2 25 Oeste 39 Oeste 0 1001.8 -0.1 60
2017-09-10 13:00:00 19.7 21 Oeste 33 Oeste 0 1001.9 0.3 59
2017-09-10 12:00:00 19.7 12 Oeste 26 Sudoeste 0 1002.1 0.7 57
2017-09-10 11:00:00 17.6 4 Sudoeste 26 Sudoeste 0 1001.9 0.9 68
2017-09-10 10:00:00 15.1 16 Sudoeste 30 Sudoeste 0 1001.6 0.8 76
2017-09-10 09:00:00 12.9 14 Sudoeste 24 Sudoeste 0 1001.4 0.7 86
2017-09-10 08:00:00 12.8 10 Sudoeste 30 Oeste 0 1001 0.4 87
2017-09-10 07:00:00 14.1 13 Sudoeste 24 Oeste 0 1000.8 0.2 82
2017-09-10 06:00:00 13.6 9 Sudoeste 18 Oeste 0 1000.7 -0.1 86
2017-09-10 05:00:00 13.6 11 Sudoeste 21 Oeste 0.5 1000.6 0 87
2017-09-10 04:00:00 14.7 12 Oeste 24 Oeste 0 1000.6 0.1 80
2017-09-10 03:00:00 15.1 15 Oeste 35 Oeste 0 1000.8 0.6 81
2017-09-10 02:00:00 15.8 12 Noroeste 30 Oeste 0 1000.6 0.7 78
2017-09-10 01:00:00 15.9 17 Oeste 39 Noroeste 0 1000.5 0.7 75
2017-09-10 00:00:00 14.7 15 Oeste 33 Oeste 0 1000.2 1.4 86
2017-09-09 23:00:00 14.8 12 Oeste 37 Noroeste 0 999.9 1.3 83
2017-09-09 22:00:00 14.7 24 Noroeste 46 Noroeste 2.3 999.8 1.6 88
2017-09-09 21:00:00 16.3 22 Oeste 45 Oeste 0 998.8 0.4 77
2017-09-09 20:00:00 16.7 23 Noroeste 50 Oeste 0 998.6 0.3 70
2017-09-09 19:00:00 17.7 24 Noroeste 55 Noroeste 0.1 998.2 -0.3 72
2017-09-09 18:00:00 17 27 Noroeste 58 Oeste 0.1 998.4 0.4 77
2017-09-09 17:00:00 17.5 30 Oeste 46 Noroeste 0 998.3 0.2 75
2017-09-09 16:00:00 17.3 18 Noroeste 39 Noroeste 0.2 998.5 0.9 82
2017-09-09 15:00:00 17.1 20 Oeste 76 Oeste 1.7 998 0.3 83
2017-09-09 14:00:00 16 21 Noroeste 52 Oeste 3 998.1 0.4 87
2017-09-09 13:00:00 19.4 35 Oeste 55 Oeste 0 997.6 0.4 62
2017-09-09 12:00:00 18.7 27 Oeste 52 Oeste 0 997.7 0.4 64
2017-09-09 11:00:00 16.4 24 Oeste 45 Oeste 0.1 997.7 0.7 72
2017-09-09 10:00:00 16.9 26 Oeste 42 Oeste 0 997.2 0 71
2017-09-09 09:00:00 15.7 22 Oeste 42 Oeste 0.1 997.3 0.4 77
2017-09-09 08:00:00 15.9 21 Oeste 39 Oeste 0 997 -0.1 76
2017-09-09 07:00:00 16.5 23 Oeste 46 Oeste 0 997.2 0.3 78
2017-09-09 06:00:00 17.1 26 Noroeste 50 Noroeste 0.1 996.9 0.2 73
2017-09-09 05:00:00 16.9 24 Noroeste 42 Noroeste 0 997.1 0 73
2017-09-09 04:00:00 16.6 24 Noroeste 42 Noroeste 2.9 996.9 -0.5 80
2017-09-09 03:00:00 16.7 18 Oeste 45 Oeste 0 996.7 -0.8 88
2017-09-09 02:00:00 16.8 33 Oeste 61 Oeste 0.7 997.1 -0.3 88
2017-09-09 01:00:00 17.7 23 Oeste 45 Oeste 0 997.4 -0.2 85
2017-09-09 00:00:00 18.7 27 Oeste 42 Oeste 0 997.5 -0.5 79
2017-09-08 23:00:00 18.9 21 Oeste 33 Oeste 0 997.4 -0.8 75
2017-09-08 22:00:00 18.8 23 Oeste 45 Oeste 0 997.6 -0.9 76
2017-09-08 21:00:00 19.1 21 Oeste 35 Noroeste 0 998 -0.2 72
2017-09-08 20:00:00 18.7 15 Oeste 33 Oeste 0 998.2 -0.7 77
2017-09-08 19:00:00 19.1 21 Oeste 28 Oeste 0 998.5 -0.9 75
2017-09-08 18:00:00 20.7 13 Oeste 26 Oeste 0 998.2 -2 66
2017-09-08 17:00:00 20.5 18 Noroeste 24 Oeste 0 998.9 -2.5 70
2017-09-08 16:00:00 20.5 16 Oeste 28 Oeste 0 999.4 -1.7 65
2017-09-08 15:00:00 19.8 18 Noroeste 30 Noroeste 0 1000.2 -1.2 68
2017-09-08 14:00:00 19.7 16 Noroeste 28 Noroeste 0 1001.4 -0.6 68
2017-09-08 13:00:00 20 12 Noroeste 18 Noroeste 0 1001.1 -1.3 66
2017-09-08 12:00:00 19.7 5 Sudoeste 22 Sudoeste 0 1001.4 -1.7 65
2017-09-08 11:00:00 17.9 13 Sudoeste 21 Sudoeste 0 1002 -0.6 74
2017-09-08 10:00:00 15.9 10 Sudoeste 24 Sudoeste 0 1002.4 -0.2 84
2017-09-08 09:00:00 14.1 6 Sudoeste 13 Sudoeste 0 1003.1 0.5 94
2017-09-08 08:00:00 13.6 3 Sur 18 Sudoeste 0 1002.6 -0.4 90
2017-09-08 07:00:00 14.4 3 Sudoeste 8 Sur 0 1002.6 -1 86
2017-09-08 06:00:00 15.8 0 Calma 8 Sudoeste 0 1002.6 -1.9 82
2017-09-08 05:00:00 15.7 3 Sudoeste 13 Sudoeste 0 1003 -2.3 84
2017-09-08 04:00:00 15.5 6 Sur 13 Sudoeste 0 1003.6 -2.1 84
2017-09-08 03:00:00 15.3 7 Sur 13 Sudoeste 0 1004.5 -1.5 82
2017-09-08 02:00:00 16.1 3 Sudoeste 5 Sudoeste 0 1005.3 -1.2 81
2017-09-08 01:00:00 16.4 0 Calma 5 Sudoeste 0 1005.7 -0.9 80
2017-09-08 00:00:00 16.7 0 Calma 2 Nordeste 0 1006 -0.3 80
2017-09-07 23:00:00 16.7 0 Calma 2 Nordeste 0 1006.5 0.1 78
2017-09-07 22:00:00 16.9 0 Calma 2 Nordeste 0 1006.6 0.2 77
2017-09-07 21:00:00 17.4 0 Calma 15 Este 0 1006.3 -0.3 75
2017-09-07 20:00:00 18.2 0 Calma 8 Nordeste 0 1006.4 -0.7 71
2017-09-07 19:00:00 19.1 5 Norte 13 Norte 0 1006.4 -0.9 66
2017-09-07 18:00:00 20 7 Norte 15 Norte 0 1006.6 -1.1 64
2017-09-07 17:00:00 20.2 9 Norte 17 Norte 0 1007.1 -0.8 63
2017-09-07 16:00:00 20.3 8 Norte 17 Norte 0 1007.3 -1.1 61
2017-09-07 15:00:00 20.1 7 Norte 17 Nordeste 0 1007.7 -1.3 68
2017-09-07 14:00:00 19.8 5 Norte 13 Norte 0 1007.9 -1 65
2017-09-07 13:00:00 19.1 2 Norte 11 Sudoeste 0 1008.4 -0.6 63
2017-09-07 12:00:00 18.6 6 Sudoeste 17 Sudoeste 0 1009 0 72
2017-09-07 11:00:00 17.1 6 Sudoeste 24 Sudoeste 0 1008.9 0.2 82
2017-09-07 10:00:00 15.8 7 Sudoeste 22 Sudoeste 0 1009 0.6 87
2017-09-07 09:00:00 15.1 5 Sudoeste 13 Sudoeste 0 1009 0.6 90
2017-09-07 08:00:00 14.3 5 Sudoeste 17 Sur 0 1008.7 -0.1 92
2017-09-07 07:00:00 13.3 4 Sudoeste 8 Sudoeste 0 1008.4 -0.8 93
2017-09-07 06:00:00 13.2 4 Sudoeste 8 Sur 0 1008.4 -1.6 93
2017-09-07 05:00:00 13.2 0 Calma 13 Sur 0 1008.8 -1.8 93
2017-09-07 04:00:00 13.5 7 Sur 15 Sur 0 1009.2 -1.9 93
2017-09-07 03:00:00 13 8 Sur 13 Sur 0 1010 -1.1 92
2017-09-07 02:00:00 13.3 3 Sur 5 Sudoeste 0 1010.6 -1.1 90
2017-09-07 01:00:00 14.2 0 Calma 8 Sudeste 0 1011.1 -0.4 87
2017-09-07 00:00:00 15.2 9 Sudeste 15 Este 0 1011.1 -0.1 82
2017-09-06 23:00:00 16.9 7 Este 15 Este 0 1011.7 0.9 77
2017-09-06 22:00:00 17 10 Este 15 Este 0 1011.5 0.5 76
2017-09-06 21:00:00 17.4 5 Este 21 Este 0 1011.2 0 74
2017-09-06 20:00:00 18.3 5 Este 21 Este 0 1010.8 -0.9 72
2017-09-06 19:00:00 19.7 13 Este 24 Este 0 1011 -1 67
2017-09-06 18:00:00 21 9 Este 24 Este 0 1011.2 -1.2 66
2017-09-06 17:00:00 20 6 Nordeste 22 Nordeste 0 1011.7 -1.1 69
2017-09-06 16:00:00 21.3 8 Nordeste 22 Norte 0 1012 -1 64
2017-09-06 15:00:00 21.3 9 Nordeste 22 Este 0 1012.4 -0.8 63
2017-09-06 14:00:00 20.4 6 Este 15 Sudeste 0 1012.8 -0.4 72
2017-09-06 13:00:00 20.1 6 Este 17 Sudeste 0 1013 0 72
2017-09-06 12:00:00 19.2 9 Sudeste 15 Sudeste 0 1013.2 0.5 80
2017-09-06 11:00:00 18.1 0 Calma 13 Este 0 1013.2 0.9 81
2017-09-06 10:00:00 17.1 7 Sudeste 13 Este 0 1013 0.8 88
2017-09-06 09:00:00 16.7 4 Este 11 Sudeste 0 1012.7 0.5 88
2017-09-06 08:00:00 16.4 2 Este 5 Sudeste 0 1012.3 0 92
2017-09-06 07:00:00 16.3 0 Calma 8 Sudeste 0 1012.2 -0.2 94
2017-09-06 06:00:00 16.3 5 Sudeste 8 Sudeste 0 1012.2 -0.4 95
2017-09-06 05:00:00 16.6 0 Calma 4 Sur 0 1012.3 -0.1 95
2017-09-06 04:00:00 16.6 0 Calma 5 Sudeste 0.2 1012.4 0.2 95
2017-09-06 03:00:00 16.5 0 Calma 11 Noroeste 0.3 1012.6 0.6 96
2017-09-06 02:00:00 17.1 0 Calma 8 Nordeste 1.4 1012.4 0.7 96
2017-09-06 01:00:00 17.4 0 Calma 18 Este 0.5 1012.2 1 96
2017-09-06 00:00:00 17.4 5 Nordeste 21 Norte 1.4 1012 1.2 96
2017-09-05 23:00:00 18.1 3 Noroeste 9 Noroeste 0.7 1011.7 1.5 96
2017-09-05 22:00:00 18.4 2 Noroeste -- -- 0 1011.2 1.2 94
2017-09-05 21:00:00 18.6 3 Noroeste 11 Noroeste 0.1 1010.8 1.2 93
2017-09-05 20:00:00 19.6 0 Calma 17 Norte 0 1010.2 0.8 89
2017-09-05 19:00:00 20.5 6 Noroeste 15 Noroeste 0 1010 1 79
2017-09-05 18:00:00 22.1 5 Norte 17 Noroeste 0 1009.6 0.9 73
2017-09-05 17:00:00 22.4 10 Noroeste 17 Noroeste 0 1009.4 0.6 75
2017-09-05 16:00:00 22.3 8 Noroeste 18 Noroeste 0 1009 0.2 76
2017-09-05 15:00:00 22.3 6 Norte 17 Noroeste 0 1008.7 0.4 74
2017-09-05 14:00:00 21.7 8 Noroeste 18 Noroeste 0 1008.8 1.3 79
2017-09-05 13:00:00 21.2 13 Noroeste 21 Noroeste 0 1008.8 2 79
2017-09-05 12:00:00 20.4 6 Noroeste 13 Noroeste 0 1008.3 2 81
2017-09-05 11:00:00 20.4 6 Oeste 13 Noroeste 0 1007.5 1.9 82
2017-09-05 10:00:00 19.4 3 Sudoeste 13 Sudoeste 0 1006.8 1.6 89
2017-09-05 09:00:00 18.2 0 Calma -- -- 0 1006.3 1.1 93
2017-09-05 08:00:00 17.6 6 Sudoeste 37 Sudoeste 0 1005.6 -0.1 93
2017-09-05 07:00:00 18.2 4 Sudoeste 11 Sudoeste 0 1005.2 -0.5 92
2017-09-05 06:00:00 18.2 4 Sudoeste 13 Sur 0 1005.2 -0.9 92
2017-09-05 05:00:00 18.5 4 Sudoeste 8 Sudoeste 0 1005.7 -0.4 91
2017-09-05 04:00:00 18.7 5 Sur 11 Sur 0 1005.7 0 90
2017-09-05 03:00:00 18.9 4 Sur 11 Sur 0 1006.1 0.8 90
2017-09-05 02:00:00 19 3 Sudoeste 5 Sudoeste 0 1006.1 1.2 89
2017-09-05 01:00:00 19 2 Sudoeste 5 Sudoeste 0 1005.7 0.9 89
2017-09-05 00:00:00 19.1 0 Calma 8 Sudeste 0 1005.3 0.8 87
2017-09-04 23:00:00 19.1 3 Sur -- -- 0 1004.9 0.8 89
2017-09-04 22:00:00 19.1 0 Calma 2 Este 0 1004.8 0.6 89
2017-09-04 21:00:00 19.2 0 Calma 5 Este 0 1004.5 0.6 88
2017-09-04 20:00:00 19.6 2 Este 5 Este 0 1004.1 0.3 87
2017-09-04 19:00:00 20 2 Norte 8 Norte 0 1004.2 0.5 86
2017-09-04 18:00:00 19.5 0 Calma 11 Noroeste 0 1003.9 0.2 89
2017-09-04 17:00:00 21.4 8 Noroeste 17 Noroeste 0 1003.8 0.3 82
2017-09-04 16:00:00 21.2 2 Noroeste 21 Noroeste 0 1003.7 0.4 82
2017-09-04 15:00:00 21.4 11 Noroeste 18 Noroeste 0 1003.7 1.1 79
2017-09-04 14:00:00 20.9 9 Noroeste 24 Oeste 0 1003.5 1.7 81
2017-09-04 13:00:00 20.6 15 Oeste 32 Oeste 0 1003.3 2 84
2017-09-04 12:00:00 19.9 17 Oeste 28 Noroeste 0 1002.6 1.8 85
2017-09-04 11:00:00 20.1 14 Oeste 28 Oeste 0 1001.8 1.5 87
2017-09-04 10:00:00 17.8 13 Oeste 24 Oeste 0.2 1001.3 1.7 97
2017-09-04 09:00:00 17.1 17 Oeste 30 Oeste 0.2 1000.8 1.3 96
2017-09-04 08:00:00 17.4 12 Oeste 30 Oeste 0 1000.3 1 96
2017-09-04 07:00:00 17.6 13 Oeste 26 Noroeste 0 999.6 0.4 95
2017-09-04 06:00:00 17.8 15 Oeste 26 Oeste 0 999.5 0.5 93
2017-09-04 05:00:00 17.9 15 Oeste 26 Oeste 0 999.3 0.3 92
2017-09-04 04:00:00 18 15 Oeste 32 Oeste 0.4 999.2 0.3 92
2017-09-04 03:00:00 18.2 14 Oeste 26 Oeste 0 999 0.3 92
2017-09-04 02:00:00 18.4 7 Noroeste 17 Oeste 0 999 0.5 88
2017-09-04 01:00:00 18.7 7 Noroeste 18 Oeste 0 998.9 0.8 84
2017-09-04 00:00:00 19.1 12 Oeste 35 Oeste 0 998.7 0.7 84
2017-09-03 23:00:00 17.7 3 Sur 11 Noroeste 0 998.5 0.5 88
2017-09-03 22:00:00 18.6 6 Sur 9 Sur 0 998.1 0.2 85
2017-09-03 21:00:00 19.1 0 Calma 8 Sudoeste 0 998 -0.2 82
2017-09-03 20:00:00 19.2 3 Noroeste 15 Sudoeste 0 998 -1.1 81
2017-09-03 19:00:00 19 8 Sur 22 Sur 0 997.9 -1 80
2017-09-03 18:00:00 18.3 11 Sur 21 Sudeste 0.4 998.2 -1 80
2017-09-03 17:00:00 19.3 5 Noroeste 15 Norte 0.1 999.1 -0.7 67
2017-09-03 16:00:00 21.9 3 Norte 13 Norte 0.2 998.9 -1.7 52
2017-09-03 15:00:00 20.9 4 Noroeste 11 Noroeste 0 999.2 -1.3 65
2017-09-03 14:00:00 20.9 3 Noroeste 13 Norte 0 999.8 -0.9 53
2017-09-03 13:00:00 21.4 2 Nordeste 15 Noroeste 0 1000.6 -0.4 50
2017-09-03 12:00:00 21.1 0 Calma 5 Norte 0 1000.5 -1.1 64
2017-09-03 11:00:00 21.2 3 Nordeste 11 Sudeste 0 1000.7 -0.7 65
2017-09-03 10:00:00 18.6 5 Oeste 21 Oeste 0 1001 -0.6 69
2017-09-03 09:00:00 18 8 Oeste 17 Noroeste 0 1001.6 -0.3 71
2017-09-03 08:00:00 16.8 4 Sudoeste 18 Sudoeste 0 1001.4 -0.9 80
2017-09-03 07:00:00 16.9 6 Sudoeste 15 Sudoeste 0 1001.6 -1.5 81
2017-09-03 06:00:00 16.6 5 Sudoeste 17 Sur 0 1001.9 -1.7 83
2017-09-03 05:00:00 16.7 3 Sur 11 Sudoeste 0 1002.3 -1.9 83
2017-09-03 04:00:00 16.5 3 Sudoeste 9 Sudoeste 0 1003.1 -1.6 84
2017-09-03 03:00:00 16.5 5 Sudoeste 13 Oeste 0 1003.6 -1.8 83
2017-09-03 02:00:00 16.9 9 Sudoeste 22 Sudoeste 0 1004.2 -1.6 81
2017-09-03 01:00:00 16.6 10 Sudoeste 21 Sudoeste 0 1004.7 -1.2 81
2017-09-03 00:00:00 16.1 3 Sur 13 Sudeste 0 1005.4 -0.4 81
2017-09-02 23:00:00 15.7 11 Sudeste 17 Sudeste 0 1005.8 0 81
2017-09-02 22:00:00 15.5 12 Sudeste 17 Sudeste 0 1005.9 0 83
2017-09-02 21:00:00 16.8 3 Sudeste 21 Este 0 1005.8 -0.5 75
2017-09-02 20:00:00 18 13 Este 22 Este 0 1005.8 -0.9 69
2017-09-02 19:00:00 19.9 15 Este 28 Este 0 1005.9 -1.6 64
2017-09-02 18:00:00 20.4 11 Este 26 Este 0 1006.3 -1.7 62
2017-09-02 17:00:00 20.8 14 Este 33 Este 0 1006.7 -1.9 59
2017-09-02 16:00:00 20.9 12 Este 28 Nordeste 0 1007.5 -1.7 59
2017-09-02 15:00:00 21.1 14 Este 26 Este 0 1008 -1.8 58
2017-09-02 14:00:00 20.9 14 Este 26 Este 0 1008.6 -1.5 57
2017-09-02 13:00:00 20.4 10 Este 30 Este 0 1009.2 -0.7 58
2017-09-02 12:00:00 19.6 13 Sudeste 24 Este 0 1009.8 -0.2 63
2017-09-02 11:00:00 15.9 10 Sudoeste 18 Sur 0 1010.1 -0.1 77
2017-09-02 10:00:00 14 0 Calma 28 Sur 0 1009.9 -0.4 84
2017-09-02 09:00:00 12.1 17 Sur 24 Sur 0 1010 -0.6 90
2017-09-02 08:00:00 11.5 17 Sur 35 Sudoeste 0 1010.2 -0.8 93
2017-09-02 07:00:00 11.8 14 Sudoeste 22 Sur 0 1010.3 -0.8 93
2017-09-02 06:00:00 12.2 14 Sudoeste 18 Sudoeste 0 1010.6 -0.7 94
2017-09-02 05:00:00 12.3 10 Sudoeste 15 Sudoeste 0 1011 -0.6 93
2017-09-02 04:00:00 12.6 12 Sudoeste 17 Sudoeste 0 1011.1 -0.7 92
2017-09-02 03:00:00 12.8 7 Sudoeste 15 Sudoeste 0 1011.3 -0.6 91
2017-09-02 02:00:00 13.6 6 Sudoeste 13 Sudoeste 0 1011.6 0 90
2017-09-02 01:00:00 13.6 6 Sudoeste 13 Sur 0 1011.8 0.6 90
2017-09-02 00:00:00 14.1 0 Calma 5 Sudoeste 0 1011.9 1.2 87
2017-09-01 23:00:00 14.3 2 Sudeste 5 Sudeste 0 1011.6 1.3 86
2017-09-01 22:00:00 15.5 2 Este 5 Este 0 1011.2 1 81
2017-09-01 21:00:00 17.4 0 Calma 8 Nordeste 0 1010.7 0.8 74
2017-09-01 20:00:00 19.2 3 Norte 15 Nordeste 0 1010.3 0.5 69
2017-09-01 19:00:00 19.1 3 Norte 17 Noroeste 0 1010.2 0.4 70
2017-09-01 18:00:00 19.5 6 Noroeste 21 Oeste 0 1009.9 0 73
2017-09-01 17:00:00 20.9 13 Noroeste 22 Noroeste 0 1009.8 0.1 65
2017-09-01 16:00:00 19.3 0 Calma 26 Noroeste 0 1009.8 0.1 71
2017-09-01 15:00:00 19.9 15 Noroeste 30 Noroeste 0 1009.9 0.3 63
2017-09-01 14:00:00 20.6 15 Noroeste 24 Oeste 0 1009.7 0.3 60
2017-09-01 13:00:00 20.6 17 Noroeste 24 Oeste 0 1009.7 0.5 63
2017-09-01 12:00:00 19.8 8 Noroeste 24 Sudoeste 0 1009.6 0.6 66
2017-09-01 11:00:00 17.9 7 Sudoeste 18 Sur 0 1009.4 0.7 72
2017-09-01 10:00:00 15.3 7 Sudoeste 30 Sur 0 1009.2 0.9 85
2017-09-01 09:00:00 13.3 11 Sudoeste 18 Sudoeste 0 1009 0.7 93
2017-09-01 08:00:00 12.3 10 Sudoeste 28 Sudoeste 0 1008.7 0.3 94
2017-09-01 07:00:00 12.6 10 Sudoeste 18 Sudoeste 0 1008.3 -0.2 94
2017-09-01 06:00:00 12.8 8 Sudoeste 13 Sudoeste 0 1008.3 -0.4 94
2017-09-01 05:00:00 12.9 8 Sudoeste 13 Sudoeste 0 1008.4 -0.4 94
2017-09-01 04:00:00 13 7 Sudoeste 13 Sudoeste 0 1008.5 -0.5 94
2017-09-01 03:00:00 13.4 2 Sudoeste 13 Sudoeste 0 1008.7 -0.4 94
2017-09-01 02:00:00 13.4 6 Sudoeste 11 Sudoeste 0 1008.8 -0.2 92
2017-09-01 01:00:00 14 6 Sudoeste 13 Sudoeste 0 1009 0.2 91
2017-09-01 00:00:00 14.5 0 Calma 2 Sur 0 1009.1 0.8 89
2017-08-31 23:00:00 15.1 0 Calma 2 Nordeste 0 1009 1.1 88
2017-08-31 22:00:00 15.4 0 Calma 4 Este 0 1008.8 1.1 87
2017-08-31 21:00:00 16.7 0 Calma 8 Nordeste 0 1008.3 0.9 81
2017-08-31 20:00:00 18 3 Norte 11 Este 0 1007.9 0.5 75
2017-08-31 19:00:00 18.6 3 Nordeste 15 Nordeste 0 1007.7 0.2 72
2017-08-31 18:00:00 19.5 5 Nordeste 18 Norte 0 1007.4 -0.6 69
2017-08-31 17:00:00 19.2 8 Norte 18 Norte 0 1007.4 -0.7 70
2017-08-31 16:00:00 19.3 7 Norte 17 Norte 0 1007.5 -0.8 72
2017-08-31 15:00:00 19.4 4 Nordeste 15 Este 0 1008 -0.2 70
2017-08-31 14:00:00 19.3 3 Este 15 Este 0 1008.1 0.4 69
2017-08-31 13:00:00 19.3 4 Noroeste 13 Noroeste 0 1008.3 0.6 75
2017-08-31 12:00:00 18.9 3 Este 17 Sur 0 1008.2 0.9 76
2017-08-31 11:00:00 18.8 3 Norte 11 Noroeste 0 1007.7 0.8 80
2017-08-31 10:00:00 15.9 2 Sudoeste 5 Sur 0 1007.7 1 93
2017-08-31 09:00:00 15 2 Sur 13 Sur 0 1007.3 1 94
2017-08-31 08:00:00 14.4 10 Sudeste 17 Sudeste 0.3 1006.9 0.8 95
2017-08-31 07:00:00 14.3 4 Sur 11 Sudoeste 0.1 1006.7 0.8 96
2017-08-31 06:00:00 14.1 5 Sudoeste 8 Sudoeste 0 1006.3 0.5 96
2017-08-31 05:00:00 14.3 6 Sudoeste 13 Sudoeste 0 1006.1 0.1 95
2017-08-31 04:00:00 14.6 5 Sudoeste 13 Sudoeste 0 1005.9 0.2 95
2017-08-31 03:00:00 14.5 7 Sudoeste 17 Sur 0 1005.8 -0.1 96
2017-08-31 02:00:00 14.1 6 Sur 18 Sur 0 1006 0.2 95
2017-08-31 01:00:00 14.4 8 Sur 13 Sur 0 1005.7 0.4 95
2017-08-31 00:00:00 14.9 10 Sudeste 17 Este 0 1005.9 1.6 96
2017-08-30 23:00:00 14.9 5 Sudeste 17 Sudeste 0.6 1005.8 2 96
2017-08-30 22:00:00 15.2 4 Este 15 Este 1.1 1005.3 2.2 96
2017-08-30 21:00:00 15.1 0 Calma 18 Sudoeste 1 1004.3 1.5 94
2017-08-30 20:00:00 15.7 0 Calma 15 Este 0.4 1003.8 1.3 92
2017-08-30 19:00:00 16.8 0 Calma 8 Este 0 1003.1 0.7 91
2017-08-30 18:00:00 17.1 4 Este 11 Este 0.3 1002.8 0.9 93
2017-08-30 17:00:00 16.7 0 Calma 17 Nordeste 0.7 1002.5 1.1 95
2017-08-30 16:00:00 16.7 5 Norte 18 Nordeste 2.3 1002.4 1.3 95
2017-08-30 15:00:00 17.6 2 Norte 15 Norte 0 1001.9 1.2 96
2017-08-30 14:00:00 17.1 3 Norte 15 Norte 1.1 1001.4 1.6 97
2017-08-30 13:00:00 16.7 4 Oeste 22 Oeste 3.2 1001.1 1.7 97
2017-08-30 12:00:00 17.2 4 Oeste 32 Norte 9.1 1000.7 1.3 97
2017-08-30 11:00:00 17.7 5 Oeste 26 Oeste 0.2 999.8 0.5 96
2017-08-30 10:00:00 18.6 6 Oeste 13 Oeste 0.1 999.4 0.4 96
2017-08-30 09:00:00 18.2 4 Oeste 8 Oeste 1.4 999.4 0.1 96
2017-08-30 08:00:00 18.2 3 Oeste 13 Oeste 0.2 999.3 -0.2 96
2017-08-30 07:00:00 18.3 3 Oeste 8 Oeste 0 999 -0.4 96
2017-08-30 06:00:00 18.3 2 Noroeste 5 Norte 0 999.3 -0.4 96
2017-08-30 05:00:00 18.4 2 Sudoeste 8 Sudeste 0 999.5 -0.6 95
2017-08-30 04:00:00 18.5 4 Sudeste 15 Noroeste 0 999.4 -0.8 96
2017-08-30 03:00:00 18.7 4 Noroeste 9 Noroeste 0 999.7 -0.7 96
2017-08-30 02:00:00 18.8 2 Noroeste 5 Noroeste 0 1000.1 -0.6 95
2017-08-30 01:00:00 18.8 0 Calma 11 Noroeste 0 1000.2 -0.4 95
2017-08-30 00:00:00 19.2 0 Calma 11 Sudeste 0 1000.4 0.2 93
2017-08-29 23:00:00 19.3 2 Este 11 Nordeste 0 1000.7 1 93
2017-08-29 22:00:00 19.4 4 Nordeste 15 Este 0 1000.6 1.3 94
2017-08-29 21:00:00 19.5 8 Noroeste 21 Oeste 0 1000.2 1.3 92
2017-08-29 20:00:00 20.2 7 Oeste 21 Noroeste 0 999.7 0.6 91
2017-08-29 19:00:00 21.7 3 Oeste 15 Noroeste 0 999.3 -0.2 82
2017-08-29 18:00:00 22.2 5 Oeste 17 Noroeste 0 998.9 -0.9 79
2017-08-29 17:00:00 21.8 9 Noroeste 18 Noroeste 0 999.1 -0.6 83
2017-08-29 16:00:00 21 11 Noroeste 17 Noroeste 0 999.5 -0.1 87
2017-08-29 15:00:00 20.9 9 Oeste 21 Noroeste 0 999.8 0.5 88
2017-08-29 14:00:00 21.2 13 Noroeste 21 Noroeste 0 999.7 0.4 84
2017-08-29 13:00:00 21.8 10 Noroeste 17 Noroeste 0 999.6 0 81
2017-08-29 12:00:00 23.2 9 Noroeste 15 Oeste 0 999.3 0 75
2017-08-29 11:00:00 21.1 5 Sudoeste 18 Sudoeste 0 999.3 0.4 86
2017-08-29 10:00:00 18.9 3 Sudoeste 24 Sudoeste 0 999.6 0.4 94
2017-08-29 09:00:00 18.4 4 Sur 8 Sur 0 999.3 0.9 95
2017-08-29 08:00:00 18.2 0 Calma 13 Sudeste 0.6 998.9 -0.2 94
2017-08-29 07:00:00 18.3 0 Calma 13 Oeste 0.2 999.2 0.5 93
2017-08-29 06:00:00 18.5 7 Sudoeste 18 Oeste 0 998.4 -0.2 92
2017-08-29 05:00:00 18.5 7 Oeste 22 Oeste 0 999.1 -0.1 94
2017-08-29 04:00:00 18.4 15 Oeste 21 Oeste 0 998.7 -0.3 93
2017-08-29 03:00:00 18.2 12 Oeste 21 Oeste 0 998.6 -0.7 93
2017-08-29 02:00:00 18.3 4 Oeste 8 Oeste 0 999.2 -0.4 92
2017-08-29 01:00:00 18.3 2 Noroeste 8 Noroeste 0 999 -0.3 92
2017-08-29 00:00:00 18.8 4 Oeste 15 Oeste 0 999.3 -0.1 90
2017-08-28 23:00:00 17.8 3 Sur 5 Sudoeste 0 999.6 0.3 93
2017-08-28 22:00:00 18.5 0 Calma 18 Oeste 0 999.3 0.3 92
2017-08-28 21:00:00 19.1 0 Calma 8 Norte 0 999.4 0.8 89
2017-08-28 20:00:00 20 2 Noroeste 11 Oeste 0 999.3 0.4 86
2017-08-28 19:00:00 20.2 8 Oeste 15 Oeste 0 999 0.2 86
2017-08-28 18:00:00 20.2 5 Noroeste 15 Oeste 0 998.6 -0.2 86
2017-08-28 17:00:00 19.8 5 Oeste 15 Oeste 0 998.9 -0.3 85
2017-08-28 16:00:00 21 8 Noroeste 18 Noroeste 0 998.8 -0.5 79
2017-08-28 15:00:00 22.3 8 Noroeste 18 Noroeste 0 998.8 -0.5 76
2017-08-28 14:00:00 21.4 5 Noroeste 15 Norte 0 999.2 -0.1 80
2017-08-28 13:00:00 21.1 8 Noroeste 17 Noroeste 0 999.3 0 77
2017-08-28 12:00:00 21.9 5 Noroeste 15 Oeste 0 999.3 0.4 72
2017-08-28 11:00:00 19.9 5 Sudoeste 22 Sudoeste 0 999.3 -0.1 77
2017-08-28 10:00:00 18.5 6 Sudoeste 13 Sudoeste 0 999.3 0.9 82
2017-08-28 09:00:00 17.7 0 Calma 18 Sur 0 998.9 0.6 85
2017-08-28 08:00:00 16.3 8 Sudoeste 24 Nordeste 0 999.4 1.3 87
2017-08-28 07:00:00 15.9 10 Sudoeste 18 Sudoeste 0 998.4 0.2 90
2017-08-28 06:00:00 16.5 4 Sudeste 13 Oeste 0 998.3 0.2 86
2017-08-28 05:00:00 17.1 6 Sudoeste 17 Oeste 0 998.1 0.5 84
2017-08-28 04:00:00 16.8 8 Sur 18 Sur 0 998.2 0.5 85
2017-08-28 03:00:00 17.1 3 Este 24 Sur 0 998.1 -0.7 83
2017-08-28 02:00:00 17.4 14 Sur 33 Sudoeste 0 997.6 -1.7 84
2017-08-28 01:00:00 17.6 19 Sudoeste 33 Sudoeste 0 997.7 -0.9 86
2017-08-28 00:00:00 18.2 14 Sudoeste 28 Sudoeste 0.4 998.8 1.1 85
2017-08-27 23:00:00 19.7 17 Sudoeste 33 Oeste 0.8 999.3 3.7 89
2017-08-27 22:00:00 20.7 19 Oeste 35 Oeste 0 998.6 3.5 83
2017-08-27 21:00:00 20.1 15 Noroeste 58 Oeste 0 997.7 2.5 87
2017-08-27 20:00:00 18.9 19 Noroeste 32 Oeste 0.2 995.6 -0.1 92
2017-08-27 19:00:00 23.7 3 Sur 13 Noroeste 0 995.1 -1.4 74
2017-08-27 18:00:00 26.1 3 Este 21 Este 0 995.2 -1.8 64
2017-08-27 17:00:00 28 10 Sudeste 18 Este 0 995.7 -1.5 55
2017-08-27 16:00:00 23.3 3 Sur 15 Sur 0 996.5 -0.8 73
2017-08-27 15:00:00 22.5 11 Sur 18 Sudeste 0 997 -1 77
2017-08-27 14:00:00 21.6 6 Sudoeste 11 Sudoeste 0 997.2 -1.2 78
2017-08-27 13:00:00 22.1 8 Sur 17 Sudeste 0 997.3 -0.8 81
2017-08-27 12:00:00 20.4 12 Sudeste 24 Sudeste 0 998 0.5 90
2017-08-27 11:00:00 19.8 14 Sudeste 26 Sudeste 0 998.4 1 93
2017-08-27 10:00:00 18.9 10 Sudeste 30 Sudeste 0 998.1 0.6 95
2017-08-27 09:00:00 18.2 19 Sudeste 30 Sudeste 0.1 997.5 0.2 96
2017-08-27 08:00:00 17.5 10 Sudeste 22 Sur 0 997.4 -0.1 96
2017-08-27 07:00:00 17.5 2 Sudeste 11 Sudeste 0 997.5 0.3 96
2017-08-27 06:00:00 16.5 4 Este 8 Este 0 997.3 -0.6 95
2017-08-27 05:00:00 17.5 3 Sudoeste 15 Sudoeste 0 997.5 -1 95
2017-08-27 04:00:00 17.5 4 Sur 5 Sudeste 0 997.2 -1.1 95
2017-08-27 03:00:00 18.6 3 Sur 24 Sudoeste 0.5 997.9 -0.6 95
2017-08-27 02:00:00 18.4 7 Sudeste 13 Sur 0 998.5 -0.4 92
2017-08-27 01:00:00 19.2 12 Sudeste 21 Este 0 998.3 -0.2 94
2017-08-27 00:00:00 19.2 5 Sudeste 26 Este 0 998.5 0.2 94
2017-08-26 23:00:00 19.1 15 Sudeste 24 Este 0 998.9 0.6 94
2017-08-26 22:00:00 19.3 15 Este 22 Sudeste 0 998.5 -0.2 93
2017-08-26 21:00:00 19.7 10 Este 18 Este 0 998.3 -0.9 91
2017-08-26 20:00:00 20.6 6 Este 22 Este 0 998.3 -1.3 89
2017-08-26 19:00:00 20.8 11 Este 22 Este 0 998.7 0.2 88
2017-08-26 18:00:00 20.7 10 Este 22 Este 0.4 999.2 0.3 90
2017-08-26 17:00:00 20.8 2 Norte 24 Este 0 999.6 0.1 82
2017-08-26 16:00:00 24.5 7 Este 18 Norte 0 998.5 -0.8 66
2017-08-26 15:00:00 22.5 7 Este 22 Este 0 998.9 -0.6 74
2017-08-26 14:00:00 22.1 4 Este 15 Este 0 999.5 0.3 76
2017-08-26 13:00:00 22 8 Este 15 Este 0 999.3 -- 75
2017-08-26 12:00:00 20.6 3 Noroeste 9 Noroeste 0 999.5 1 82
2017-08-26 11:00:00 21.6 3 Nordeste -- -- -- 999.2 0.8 82
2017-08-26 10:00:00 -- -- -- -- -- -- -- -- --
2017-08-26 09:00:00 15.7 0 Calma 11 Sudoeste 0 998.5 0.2 97
2017-08-26 08:00:00 15 5 Sudeste 13 Sudeste 0 998.4 -0.2 97
2017-08-26 07:00:00 15 7 Sudeste 11 Sudeste 0 998.1 -1.2 96
2017-08-26 06:00:00 15.1 7 Sudeste 11 Sudeste 0 998.3 -1.3 96
2017-08-26 05:00:00 15.4 6 Sudeste -- -- 0 998.6 -1.7 96
2017-08-26 04:00:00 15.9 4 Sudeste 8 Sudeste 0 999.3 -1.3 96
2017-08-26 03:00:00 16.5 2 Sur 5 Sur 0 999.6 -1.2 96
2017-08-26 02:00:00 16.5 3 Sur 8 Sur 0 1000.3 -0.7 96
2017-08-26 01:00:00 16.8 0 Calma 4 Sur 0 1000.6 -0.1 95
2017-08-26 00:00:00 16.9 0 Calma 2 Sudeste 0 1000.8 0.3 95
2017-08-25 23:00:00 17.2 0 Calma 4 Este 0 1001 0.5 94
2017-08-25 22:00:00 17.7 0 Calma 4 Nordeste 0 1000.7 0.2 92
2017-08-25 21:00:00 19.4 0 Calma 8 Este 0 1000.5 0.1 87
2017-08-25 20:00:00 21.1 3 Nordeste 13 Norte 0 1000.5 0.2 80
2017-08-25 19:00:00 20.7 7 Noroeste 13 Noroeste 0 1000.5 -0.1 82
2017-08-25 18:00:00 21.6 9 Noroeste 17 Oeste 0 1000.4 -0.5 80
2017-08-25 17:00:00 21.3 7 Norte 17 Noroeste 0 1000.3 -0.8 81
2017-08-25 16:00:00 21.5 8 Noroeste 17 Noroeste 0 1000.6 -1 78
2017-08-25 15:00:00 21.6 8 Noroeste 17 Norte 0 1000.9 -0.6 77
2017-08-25 14:00:00 21.4 7 Noroeste 15 Noroeste 0 1001.1 -0.2 76
2017-08-25 13:00:00 20.1 4 Noroeste 13 Oeste 0 1001.6 0.6 83
2017-08-25 12:00:00 19.8 7 Noroeste 13 Noroeste 0 1001.5 0.6 82
2017-08-25 11:00:00 18.8 0 Calma 8 Norte 0 1001.3 0.4 89
2017-08-25 10:00:00 19.1 4 Sudeste 17 Sur 0 1001 0.4 89
2017-08-25 09:00:00 17.8 2 Sudoeste 11 Norte 0 1000.9 0.2 93
2017-08-25 08:00:00 17.9 3 Norte 15 Sudeste 0 1000.9 0.2 92
2017-08-25 07:00:00 18.1 7 Sudeste 17 Sudeste 0 1000.6 -0.8 91
2017-08-25 06:00:00 17.9 11 Sudeste 18 Sudeste 0 1000.7 -1.1 93
2017-08-25 05:00:00 17.5 14 Sudeste 18 Sudeste 0 1000.7 -1.4 94
2017-08-25 04:00:00 17.9 6 Este 11 Sudeste 0 1001.4 -1.2 93
2017-08-25 03:00:00 17.9 6 Sudeste 15 Sudeste 0 1001.8 -1 94
2017-08-25 02:00:00 18.1 5 Este 11 Este 0 1002.1 -0.9 94
2017-08-25 01:00:00 18 3 Este 8 Sudeste 0 1002.6 -0.1 94
2017-08-25 00:00:00 17.9 4 Este 15 Sudeste 0 1002.8 0.2 95
2017-08-24 23:00:00 17.8 8 Sudeste 18 Sudeste 0 1003 0.5 95
2017-08-24 22:00:00 17.7 13 Este 18 Sudeste 0 1002.7 0.2 95
2017-08-24 21:00:00 18 0 Calma 15 Sudeste 0 1002.6 0 92
2017-08-24 20:00:00 19 3 Este 13 Sudeste 0 1002.5 -0.2 89
2017-08-24 19:00:00 19.2 4 Este 13 Este 0 1002.5 -0.1 91
2017-08-24 18:00:00 19.3 6 Este 15 Sudeste 0 1002.6 0.1 91
2017-08-24 17:00:00 19.3 2 Este 13 Este 0 1002.7 0.4 92
2017-08-24 16:00:00 19.1 5 Este 15 Este 0 1002.6 0.2 94
2017-08-24 15:00:00 18 6 Este 18 Nordeste 0 1002.5 0 95
2017-08-24 14:00:00 17.8 0 Calma 22 Este 0.4 1002.3 0 96
2017-08-24 13:00:00 18.3 6 Nordeste 21 Nordeste 1 1002.4 0.6 96
2017-08-24 12:00:00 17.8 5 Este 18 Este 0.5 1002.5 0.8 96
2017-08-24 11:00:00 17.6 6 Este 22 Este 0.2 1002.3 0.5 96
2017-08-24 10:00:00 17.4 9 Este 22 Este 0 1001.8 0.3 96
2017-08-24 09:00:00 17.4 5 Este 21 Este 0 1001.7 0.2 96
2017-08-24 08:00:00 17.7 4 Este 18 Sudeste 0 1001.8 0.3 95
2017-08-24 07:00:00 17.7 6 Este 17 Este 0.2 1001.5 -0.4 95
2017-08-24 06:00:00 18.1 5 Este 13 Este 0 1001.5 -0.7 93
2017-08-24 05:00:00 18.2 6 Este 17 Este 0 1001.5 -1.1 92
2017-08-24 04:00:00 18.3 6 Este 18 Este 0 1001.9 -0.9 92
2017-08-24 03:00:00 18.4 11 Este 18 Sudeste 0 1002.2 -0.8 90
2017-08-24 02:00:00 18.6 6 Este 13 Este 0 1002.6 -0.7 89
2017-08-24 01:00:00 18.5 7 Sudeste 15 Sudeste 0 1002.8 -0.3 89
2017-08-24 00:00:00 18.7 9 Sudeste 15 Sudeste 0 1003 0.1 88
2017-08-23 23:00:00 19 10 Este 15 Este 0 1003.3 0.6 86
2017-08-23 22:00:00 19.1 8 Este 18 Este 0 1003.1 0.5 87
2017-08-23 21:00:00 19.4 0 Calma 21 Este 0 1002.9 0.5 85
2017-08-23 20:00:00 19.7 9 Este 18 Este 0 1002.7 0.1 82
2017-08-23 19:00:00 20.1 7 Este 17 Este 0 1002.6 -0.4 80
2017-08-23 18:00:00 20.5 8 Este 21 Este 0 1002.4 -1 80
2017-08-23 17:00:00 20.5 4 Este 18 Este 0 1002.6 -1.1 81
2017-08-23 16:00:00 20.5 4 Este 15 Este 0 1003 -0.9 82
2017-08-23 15:00:00 19.8 4 Este 13 Este 0 1003.4 -0.5 84
2017-08-23 14:00:00 19.6 2 Norte 8 Norte -- 1003.7 -0.2 83
2017-08-23 13:00:00 20.5 4 Noroeste 13 Este -- 1003.9 0.3 78
2017-08-23 12:00:00 20.3 6 Sudeste 17 Sudoeste -- 1003.9 0.4 81
2017-08-23 11:00:00 17.8 6 Sur 33 Sudoeste -- 1003.9 1.1 90
2017-08-23 10:00:00 17.5 8 Sur 17 Sur 0 1003.6 1 93
2017-08-23 09:00:00 16.6 0 Calma 8 Sudoeste 0 1003.5 0.8 94
2017-08-23 08:00:00 15.3 4 Sudeste 8 Este 0 1002.8 0.3 94
2017-08-23 07:00:00 15.2 5 Sudeste 8 Sudeste 0 1002.6 -0.5 94
2017-08-23 06:00:00 15.1 3 Sur 5 Sur 0 1002.7 -1 94
2017-08-23 05:00:00 14.8 4 Sudeste 11 Sur 0 1002.5 -1.6 94
2017-08-23 04:00:00 15.8 6 Sur 13 Sur 0 1003.1 -1.3 94
2017-08-23 03:00:00 15.8 6 Sudoeste 11 Sudoeste 0 1003.7 -0.9 95
2017-08-23 02:00:00 15.6 0 Calma 5 Sur 0 1004.1 -0.4 94
2017-08-23 01:00:00 16 0 Calma 8 Oeste 0 1004.4 0.3 92
2017-08-23 00:00:00 16.7 6 Oeste 11 Oeste 0 1004.6 0.9 93
2017-08-22 23:00:00 17 3 Oeste 13 Oeste 0 1004.5 1.2 92
2017-08-22 22:00:00 17.6 4 Noroeste 17 Noroeste 0 1004.1 1.2 90
2017-08-22 21:00:00 19.1 11 Noroeste 18 Noroeste 0 1003.7 0.9 84
2017-08-22 20:00:00 20.8 14 Oeste 21 Noroeste 0 1003.3 0.3 77
2017-08-22 19:00:00 21.2 11 Oeste 18 Noroeste 0 1002.9 -0.3 75
2017-08-22 18:00:00 21.9 4 Noroeste 22 Oeste 0 1002.8 -0.4 72
2017-08-22 17:00:00 22.2 16 Oeste 26 Oeste 0 1003 0 70
2017-08-22 16:00:00 22.1 19 Oeste 30 Oeste 0 1003.2 0.4 71
2017-08-22 15:00:00 22.2 19 Oeste 30 Oeste 0 1003.2 0.6 72
2017-08-22 14:00:00 21.6 20 Noroeste 30 Noroeste 0 1003 0.8 74
2017-08-22 13:00:00 21.4 17 Noroeste 24 Oeste 0 1002.8 1.2 77
2017-08-22 12:00:00 21.1 12 Noroeste 21 Noroeste 0 1002.6 1.3 78
2017-08-22 11:00:00 20.2 9 Noroeste 18 Noroeste 0 1002.2 1.6 84
2017-08-22 10:00:00 19 7 Noroeste 21 Noroeste 0 1001.6 1.6 89
2017-08-22 09:00:00 18 12 Noroeste 26 Oeste 0 1001.3 1.7 93
2017-08-22 08:00:00 18.1 15 Noroeste 26 Oeste 0 1000.6 1.1 93
2017-08-22 07:00:00 18.2 18 Oeste 26 Oeste 0 1000 1 90
2017-08-22 06:00:00 18.4 17 Oeste 28 Noroeste 0 999.6 0.9 86
2017-08-22 05:00:00 19.1 15 Oeste 24 Oeste 0 999.5 1.3 82
2017-08-22 04:00:00 21.6 10 Oeste 30 Noroeste 0 999 0.4 72
2017-08-22 03:00:00 21 13 Oeste 22 Oeste 0 998.7 0 79
2017-08-22 02:00:00 20.2 6 Sudoeste 13 Sudoeste 0 998.2 -0.5 80
2017-08-22 01:00:00 18.9 2 Oeste 5 Oeste 0 998.6 0.4 84
2017-08-22 00:00:00 18.8 0 Calma 5 Noroeste 0 998.7 1.2 81